Time;durP1;ratioP1;P1;durP2;ratioP2;P2;SDS_P1;SDS_P2;PMS_P1;PMS_P2;Temp;Humidity;BMP_temperature;BMP_pressure;BME280_temperature;BME280_humidity;BME280_pressure;Samples;Min_cycle;Max_cycle;Signal;HPM_P1;HPM_P2
2021/11/16 00:00:26;;;;;;;49.57;23.93;;;7.50;91.60;;;;;;5055037;28;20067;-73
2021/11/16 00:02:51;;;;;;;45.70;23.73;;;7.50;91.60;;;;;;5056474;28;20017;-75
2021/11/16 00:05:17;;;;;;;49.80;23.97;;;7.60;91.60;;;;;;5052990;28;20026;-75
2021/11/16 00:07:43;;;;;;;46.43;23.27;;;7.60;91.60;;;;;;5056007;28;20052;-75
2021/11/16 00:10:09;;;;;;;47.53;23.23;;;7.60;91.60;;;;;;5055730;28;20064;-76
2021/11/16 00:12:36;;;;;;;46.37;22.77;;;7.50;91.60;;;;;;5054943;28;20021;-76
2021/11/16 00:15:03;;;;;;;48.07;24.57;;;7.60;91.60;;;;;;5056025;28;20385;-76
2021/11/16 00:17:28;;;;;;;45.37;24.53;;;7.60;91.60;;;;;;5056008;28;20477;-76
2021/11/16 00:19:54;;;;;;;47.87;24.80;;;7.50;91.60;;;;;;5054774;28;20051;-76
2021/11/16 00:22:20;;;;;;;44.27;24.00;;;7.50;91.60;;;;;;5054528;28;20014;-76
2021/11/16 00:25:07;;;;;;;47.77;24.57;;;7.50;91.60;;;;;;5054549;28;20025;-76
2021/11/16 00:27:34;;;;;;;43.70;22.40;;;7.50;91.70;;;;;;5054664;28;20040;-76
2021/11/16 00:30:00;;;;;;;50.87;24.80;;;7.50;91.70;;;;;;5055758;28;20108;-76
2021/11/16 00:32:26;;;;;;;47.77;24.07;;;7.50;91.70;;;;;;5054402;28;20099;-76
2021/11/16 00:34:52;;;;;;;48.83;23.93;;;7.60;91.80;;;;;;5054220;28;20040;-73
2021/11/16 00:37:27;;;;;;;48.70;23.67;;;7.60;91.70;;;;;;5054753;28;20141;-73
2021/11/16 00:39:58;;;;;;;45.73;23.77;;;7.60;91.70;;;;;;5055390;28;20041;-73
2021/11/16 00:42:24;;;;;;;49.33;24.40;;;7.50;91.60;;;;;;5054135;28;20045;-73
2021/11/16 00:44:50;;;;;;;52.33;25.43;;;7.50;91.90;;;;;;5045842;28;20078;-73
2021/11/16 00:47:16;;;;;;;49.80;24.57;;;7.50;91.60;;;;;;5071132;28;20021;-73
2021/11/16 00:49:42;;;;;;;48.20;24.43;;;7.50;91.60;;;;;;5054029;28;20060;-73
2021/11/16 00:52:08;;;;;;;50.07;25.80;;;7.60;91.70;;;;;;5054521;28;20064;-73
2021/11/16 00:54:34;;;;;;;47.93;25.30;;;7.60;91.60;;;;;;5055508;28;20029;-73
2021/11/16 00:56:59;;;;;;;50.27;26.30;;;7.50;91.60;;;;;;5055752;28;20527;-73
2021/11/16 00:59:25;;;;;;;46.20;24.23;;;7.60;91.60;;;;;;5037612;28;20068;-73
2021/11/16 01:01:51;;;;;;;49.37;24.13;;;7.60;91.60;;;;;;5055192;28;20025;-73
2021/11/16 01:04:17;;;;;;;47.73;24.50;;;7.50;91.60;;;;;;5055124;28;20029;-73
2021/11/16 01:06:43;;;;;;;51.67;23.90;;;7.50;91.60;;;;;;5037410;28;20076;-73
2021/11/16 01:09:10;;;;;;;46.53;24.67;;;7.50;91.60;;;;;;5055215;28;20070;-73
2021/11/16 01:11:35;;;;;;;45.70;24.47;;;7.50;91.60;;;;;;5055286;28;20057;-73
2021/11/16 01:14:01;;;;;;;44.90;23.67;;;7.50;91.60;;;;;;5053949;28;20102;-72
2021/11/16 01:16:27;;;;;;;50.03;25.40;;;7.50;91.60;;;;;;5054122;28;20035;-72
2021/11/16 01:18:53;;;;;;;47.60;23.17;;;7.50;91.60;;;;;;5053833;28;20025;-72
2021/11/16 01:21:19;;;;;;;45.80;24.77;;;7.50;91.60;;;;;;5055073;28;20039;-72
2021/11/16 01:23:46;;;;;;;49.60;24.70;;;7.50;91.60;;;;;;5054915;28;20083;-72
2021/11/16 01:26:12;;;;;;;48.67;24.83;;;7.40;91.60;;;;;;5054207;28;20029;-72
2021/11/16 01:28:38;;;;;;;45.07;23.60;;;7.40;91.60;;;;;;5054980;28;20055;-72
2021/11/16 01:31:06;;;;;;;48.07;24.80;;;7.50;91.70;;;;;;5054883;28;20040;-72
2021/11/16 01:33:43;;;;;;;51.43;25.30;;;7.40;91.70;;;;;;5054531;28;20068;-72
2021/11/16 01:36:11;;;;;;;50.23;24.47;;;7.40;91.70;;;;;;5054519;28;20117;-72
2021/11/16 01:38:38;;;;;;;51.10;25.07;;;7.40;91.70;;;;;;5053550;28;20017;-72
2021/11/16 01:41:05;;;;;;;48.33;23.83;;;7.40;91.80;;;;;;5054811;28;20108;-73
2021/11/16 01:43:31;;;;;;;45.83;23.33;;;7.50;91.70;;;;;;5053164;28;20354;-73
2021/11/16 01:46:02;;;;;;;46.57;23.13;;;7.50;91.70;;;;;;5054420;28;20036;-75
2021/11/16 01:48:29;;;;;;;47.37;24.50;;;7.40;91.70;;;;;;5054775;28;20070;-75
2021/11/16 01:50:55;;;;;;;46.23;23.50;;;7.40;91.70;;;;;;5054260;28;20033;-76
2021/11/16 01:53:22;;;;;;;51.60;24.33;;;7.60;91.70;;;;;;5053309;28;20040;-76
2021/11/16 01:55:47;;;;;;;49.80;24.27;;;7.50;91.70;;;;;;5053318;28;20021;-76
2021/11/16 01:58:13;;;;;;;47.43;24.20;;;7.40;91.70;;;;;;5053104;28;20171;-76
2021/11/16 02:00:43;;;;;;;49.37;22.77;;;7.40;91.70;;;;;;5052828;28;20400;-76
2021/11/16 02:03:11;;;;;;;48.57;24.50;;;7.40;91.80;;;;;;5053467;28;20025;-76
2021/11/16 02:05:44;;;;;;;47.37;23.80;;;7.50;91.90;;;;;;5053104;28;20035;-76
2021/11/16 02:08:12;;;;;;;47.95;25.00;;;7.40;91.90;;;;;;5054169;28;20048;-76
2021/11/16 02:10:39;;;;;;;51.77;24.73;;;7.50;91.90;;;;;;5054039;28;20029;-76
2021/11/16 02:13:05;;;;;;;47.40;23.37;;;7.50;92.20;;;;;;5053903;28;20449;-76
2021/11/16 02:15:32;;;;;;;47.77;23.67;;;7.50;91.90;;;;;;5053807;28;20039;-76
2021/11/16 02:17:57;;;;;;;49.07;24.60;;;7.50;91.90;;;;;;5052682;28;20037;-75
2021/11/16 02:20:28;;;;;;;50.80;24.40;;;7.50;91.80;;;;;;5052917;28;20029;-75
2021/11/16 02:22:53;;;;;;;47.83;24.47;;;7.50;91.80;;;;;;5052542;28;20469;-75
2021/11/16 02:25:19;;;;;;;52.13;25.17;;;7.40;92.10;;;;;;5052661;28;20069;-75
2021/11/16 02:27:48;;;;;;;46.07;23.50;;;7.50;91.80;;;;;;5052811;28;20477;-75
2021/11/16 02:30:15;;;;;;;49.17;25.27;;;7.50;91.80;;;;;;5052765;28;20112;-75
2021/11/16 02:32:44;;;;;;;51.17;25.07;;;7.50;91.80;;;;;;5053727;28;20427;-75
2021/11/16 02:35:09;;;;;;;45.03;23.63;;;7.50;91.80;;;;;;5046848;28;20053;-75
2021/11/16 02:37:35;;;;;;;53.87;24.87;;;7.50;91.80;;;;;;5015501;28;20033;-75
2021/11/16 02:40:03;;;;;;;53.43;24.67;;;7.40;91.80;;;;;;5031779;28;20086;-75
2021/11/16 02:42:29;;;;;;;50.47;24.33;;;7.40;91.80;;;;;;5033347;28;20064;-75
2021/11/16 02:44:55;;;;;;;50.50;25.33;;;7.40;91.90;;;;;;5033403;28;20470;-75
2021/11/16 02:47:21;;;;;;;54.37;26.50;;;7.50;91.90;;;;;;5032504;28;20028;-75
2021/11/16 02:49:46;;;;;;;55.73;27.10;;;7.40;91.80;;;;;;5032033;28;20029;-75
2021/11/16 02:52:13;;;;;;;52.00;25.33;;;7.50;91.80;;;;;;5033326;28;20037;-75
2021/11/16 02:54:40;;;;;;;53.30;26.40;;;7.50;91.80;;;;;;5015434;28;20036;-75
2021/11/16 02:57:13;;;;;;;51.23;25.93;;;7.50;91.80;;;;;;5015585;28;20394;-76
2021/11/16 02:59:40;;;;;;;53.00;26.10;;;7.40;91.70;;;;;;5031675;28;20025;-76
2021/11/16 03:02:07;;;;;;;52.27;25.67;;;7.40;91.80;;;;;;5033168;28;20536;-76
2021/11/16 03:04:33;;;;;;;51.03;24.50;;;7.40;91.80;;;;;;5033061;28;20033;-76
2021/11/16 03:07:04;;;;;;;48.77;25.93;;;7.40;91.80;;;;;;5031909;28;20033;-76
2021/11/16 03:09:32;;;;;;;55.03;25.87;;;7.40;91.90;;;;;;5033115;28;20063;-76
2021/11/16 03:11:59;;;;;;;50.57;24.13;;;7.30;91.90;;;;;;5031867;28;20033;-76
2021/11/16 03:14:26;;;;;;;47.57;23.87;;;7.40;92.00;;;;;;5031752;28;20042;-76
2021/11/16 03:16:52;;;;;;;44.90;24.47;;;7.40;92.00;;;;;;5032835;28;20079;-76
2021/11/16 03:19:18;;;;;;;47.40;24.10;;;7.50;91.90;;;;;;5031511;28;20060;-73
2021/11/16 03:21:53;;;;;;;45.87;23.27;;;7.40;91.90;;;;;;5032923;28;20064;-73
2021/11/16 03:24:19;;;;;;;51.30;24.20;;;7.40;91.90;;;;;;5031366;28;20048;-73
2021/11/16 03:26:45;;;;;;;49.20;24.53;;;7.40;91.90;;;;;;5050221;28;20057;-73
2021/11/16 03:29:12;;;;;;;51.70;24.30;;;7.40;91.90;;;;;;5051794;28;20072;-73
2021/11/16 03:31:41;;;;;;;48.70;24.10;;;7.40;92.00;;;;;;5051635;28;20116;-73
2021/11/16 03:34:07;;;;;;;49.97;24.03;;;7.40;91.90;;;;;;5051463;28;20045;-73
2021/11/16 03:36:32;;;;;;;47.87;24.23;;;7.40;92.00;;;;;;5034996;28;20033;-73
2021/11/16 03:39:01;;;;;;;50.00;26.10;;;7.40;92.00;;;;;;5051857;28;20021;-73
2021/11/16 03:41:27;;;;;;;50.40;24.83;;;7.40;92.20;;;;;;5052910;28;20025;-72
2021/11/16 03:43:54;;;;;;;53.30;25.83;;;7.40;91.90;;;;;;5052854;28;20473;-74
2021/11/16 03:46:20;;;;;;;49.07;25.43;;;7.40;92.20;;;;;;5051748;28;20025;-76
2021/11/16 03:48:46;;;;;;;50.53;24.60;;;7.40;91.90;;;;;;5051773;28;20029;-76
2021/11/16 03:51:13;;;;;;;45.90;24.10;;;7.40;92.00;;;;;;5035118;28;20477;-76
2021/11/16 03:53:39;;;;;;;53.07;25.70;;;7.40;92.00;;;;;;5052784;28;20033;-76
2021/11/16 03:56:04;;;;;;;52.87;25.63;;;7.40;92.00;;;;;;5051545;28;20120;-76
2021/11/16 03:58:30;;;;;;;47.03;23.87;;;7.40;92.00;;;;;;5053749;28;20029;-76
2021/11/16 04:01:00;;;;;;;49.67;24.70;;;7.40;92.00;;;;;;5038338;28;20477;-76
2021/11/16 04:03:29;;;;;;;51.97;25.67;;;7.40;92.00;;;;;;5056982;28;20029;-76
2021/11/16 04:05:55;;;;;;;51.93;24.37;;;7.40;92.00;;;;;;5056438;28;20469;-76
2021/11/16 04:08:20;;;;;;;52.90;25.77;;;7.40;92.20;;;;;;5055066;28;20023;-76
2021/11/16 04:10:47;;;;;;;48.50;25.33;;;7.40;92.00;;;;;;5038551;28;20029;-76
2021/11/16 04:13:13;;;;;;;53.77;25.73;;;7.40;92.00;;;;;;5056717;28;20037;-76
2021/11/16 04:15:40;;;;;;;49.83;25.20;;;7.40;92.00;;;;;;5056608;28;20146;-76
2021/11/16 04:18:08;;;;;;;50.87;24.70;;;7.40;92.00;;;;;;5056467;28;20393;-76
2021/11/16 04:20:37;;;;;;;48.50;24.53;;;7.40;92.00;;;;;;5054696;28;20033;-76
2021/11/16 04:23:06;;;;;;;48.07;24.00;;;7.40;92.00;;;;;;5054659;28;20013;-76
2021/11/16 04:25:33;;;;;;;43.70;22.97;;;7.40;91.90;;;;;;5054745;28;20413;-76
2021/11/16 04:28:00;;;;;;;47.87;23.90;;;7.40;91.90;;;;;;5054706;28;20020;-76
2021/11/16 04:30:27;;;;;;;51.50;25.00;;;7.40;91.90;;;;;;5056208;28;20029;-76
2021/11/16 04:32:53;;;;;;;49.87;23.77;;;7.40;91.90;;;;;;5054658;28;20507;-76
2021/11/16 04:35:19;;;;;;;47.53;24.20;;;7.40;92.20;;;;;;5055731;28;20041;-76
2021/11/16 04:37:48;;;;;;;46.90;24.20;;;7.40;92.00;;;;;;5054668;28;20025;-76
2021/11/16 04:40:19;;;;;;;47.37;23.80;;;7.40;92.00;;;;;;5055774;28;20033;-76
2021/11/16 04:42:46;;;;;;;47.57;24.33;;;7.40;92.00;;;;;;5055947;28;20465;-76
2021/11/16 04:45:17;;;;;;;49.27;25.33;;;7.40;92.00;;;;;;5054640;28;20021;-76
2021/11/16 04:47:51;;;;;;;45.30;23.67;;;7.50;92.00;;;;;;5054581;28;20457;-76
2021/11/16 04:53:08;;;;;;;46.93;24.60;;;7.40;92.00;;;;;;5054863;28;20045;-76
2021/11/16 04:55:47;;;;;;;48.58;24.02;;;7.30;92.00;;;;;;5052654;28;20485;-76
2021/11/16 05:03:45;;;;;;;52.87;25.13;;;7.40;91.90;;;;;;5055376;28;20033;-76
2021/11/16 05:06:11;;;;;;;48.43;23.80;;;7.40;92.00;;;;;;5053891;28;20025;-76
2021/11/16 05:08:43;;;;;;;49.10;24.10;;;7.40;92.00;;;;;;5053471;28;20033;-73
2021/11/16 05:11:10;;;;;;;55.63;26.00;;;7.40;92.00;;;;;;5047375;28;20035;-74
2021/11/16 05:13:39;;;;;;;52.57;25.80;;;7.40;91.90;;;;;;5041097;28;20057;-73
2021/11/16 05:16:05;;;;;;;49.97;25.50;;;7.30;91.90;;;;;;5037379;28;20025;-73
2021/11/16 05:18:31;;;;;;;53.67;26.50;;;7.40;91.90;;;;;;5043785;28;20029;-73
2021/11/16 05:20:58;;;;;;;53.93;27.10;;;7.40;91.90;;;;;;5035211;28;20544;-73
2021/11/16 05:23:26;;;;;;;56.30;25.70;;;7.40;91.90;;;;;;5043704;28;20104;-73
2021/11/16 05:25:53;;;;;;;55.77;26.67;;;7.30;91.90;;;;;;5052134;28;20017;-73
2021/11/16 05:28:20;;;;;;;52.03;24.77;;;7.20;92.00;;;;;;5052211;28;20028;-73
2021/11/16 05:30:46;;;;;;;55.60;26.40;;;7.30;92.00;;;;;;5054586;28;20029;-73
2021/11/16 05:33:13;;;;;;;52.77;26.37;;;7.30;92.00;;;;;;5053276;28;20029;-73
2021/11/16 05:35:38;;;;;;;57.93;26.63;;;7.40;92.00;;;;;;5054332;28;20056;-73
2021/11/16 05:38:04;;;;;;;58.13;26.23;;;7.30;92.00;;;;;;5053137;28;20108;-73
2021/11/16 05:40:31;;;;;;;56.47;26.43;;;7.30;92.00;;;;;;5054155;28;20033;-72
2021/11/16 05:42:57;;;;;;;55.57;26.33;;;7.30;92.10;;;;;;5052855;28;20390;-72
2021/11/16 05:45:23;;;;;;;53.07;26.07;;;7.30;92.10;;;;;;5052896;28;20017;-72
2021/11/16 05:47:53;;;;;;;61.57;29.40;;;7.30;92.10;;;;;;5052980;28;20389;-72
2021/11/16 05:50:19;;;;;;;63.57;29.87;;;7.30;92.20;;;;;;5054134;28;20029;-72
2021/11/16 05:52:45;;;;;;;56.83;27.97;;;7.40;92.20;;;;;;5054105;28;20032;-72
2021/11/16 05:55:11;;;;;;;55.77;26.67;;;7.30;92.20;;;;;;5029320;28;20049;-73
2021/11/16 05:57:38;;;;;;;56.17;27.33;;;7.40;92.30;;;;;;5054067;28;20056;-73
2021/11/16 06:00:08;;;;;;;56.77;27.50;;;7.30;92.30;;;;;;5052444;28;20119;-72
2021/11/16 06:02:33;;;;;;;54.37;26.00;;;7.30;92.30;;;;;;5054348;28;20017;-73
2021/11/16 06:04:59;;;;;;;53.80;25.80;;;7.20;92.30;;;;;;5052551;28;20108;-73
2021/11/16 06:07:25;;;;;;;57.53;27.43;;;7.30;92.40;;;;;;5052970;28;20070;-72
2021/11/16 06:09:51;;;;;;;59.13;28.23;;;7.30;92.40;;;;;;5036090;28;20029;-72
2021/11/16 06:12:16;;;;;;;61.97;28.40;;;7.30;92.40;;;;;;5053971;28;20067;-72
2021/11/16 06:14:43;;;;;;;54.60;26.03;;;7.30;92.70;;;;;;5035893;28;20025;-72
2021/11/16 06:17:09;;;;;;;64.00;27.57;;;7.30;92.40;;;;;;5052689;28;20021;-72
2021/11/16 06:19:35;;;;;;;61.50;26.90;;;7.30;92.40;;;;;;5052526;28;20033;-73
2021/11/16 06:22:03;;;;;;;60.00;27.13;;;7.20;92.40;;;;;;5036124;28;20397;-73
2021/11/16 06:24:29;;;;;;;59.77;28.07;;;7.20;92.40;;;;;;5036144;28;20095;-72
2021/11/16 06:26:54;;;;;;;60.67;27.97;;;7.40;92.40;;;;;;5052086;28;20118;-72
2021/11/16 06:29:20;;;;;;;58.10;26.90;;;7.20;92.40;;;;;;5052173;28;20029;-72
2021/11/16 06:31:46;;;;;;;59.97;27.57;;;7.20;92.40;;;;;;5052253;28;20025;-72
2021/11/16 06:34:12;;;;;;;55.97;25.90;;;7.20;92.40;;;;;;5049536;28;20053;-72
2021/11/16 06:36:41;;;;;;;60.87;27.80;;;7.20;92.40;;;;;;5068396;28;20028;-73
2021/11/16 06:39:15;;;;;;;62.17;27.63;;;7.20;92.50;;;;;;5052018;28;20025;-73
2021/11/16 06:41:42;;;;;;;56.55;25.40;;;7.20;92.50;;;;;;5052934;28;20029;-76
2021/11/16 06:44:10;;;;;;;59.60;26.53;;;7.20;92.60;;;;;;5053373;28;20096;-76
2021/11/16 06:46:35;;;;;;;61.63;26.47;;;7.20;92.60;;;;;;5052122;28;20040;-76
2021/11/16 06:49:03;;;;;;;59.20;27.30;;;7.20;92.70;;;;;;5051845;28;20378;-75
2021/11/16 06:51:31;;;;;;;57.60;26.67;;;7.20;92.70;;;;;;5035688;28;20032;-73
2021/11/16 06:53:56;;;;;;;61.10;26.80;;;7.20;92.70;;;;;;5051947;28;20394;-74
2021/11/16 06:56:25;;;;;;;58.93;26.00;;;7.20;92.70;;;;;;5053611;28;20052;-74
2021/11/16 06:58:52;;;;;;;56.70;26.03;;;7.10;92.80;;;;;;5052040;28;20029;-74
2021/11/16 07:01:17;;;;;;;56.63;26.30;;;7.10;92.80;;;;;;5051744;28;20017;-73
2021/11/16 07:03:51;;;;;;;60.87;26.80;;;7.10;92.90;;;;;;5051950;28;20040;-73
2021/11/16 07:06:17;;;;;;;53.53;23.95;;;7.10;93.00;;;;;;5053192;28;20079;-73
2021/11/16 07:08:44;;;;;;;55.47;25.37;;;7.00;92.90;;;;;;5052666;28;20033;-74
2021/11/16 07:11:16;;;;;;;53.43;24.73;;;7.00;93.00;;;;;;5035389;28;20047;-72
2021/11/16 07:13:57;;;;;;;60.67;25.60;;;7.00;93.00;;;;;;5052350;28;20477;-72
2021/11/16 07:16:25;;;;;;;51.77;23.47;;;7.00;93.40;;;;;;5049248;28;20025;-73
2021/11/16 07:18:53;;;;;;;59.27;25.70;;;7.00;93.20;;;;;;5051006;28;20032;-73
2021/11/16 07:21:23;;;;;;;54.37;24.77;;;7.00;93.30;;;;;;5051878;28;20029;-73
2021/11/16 07:24:11;;;;;;;61.97;25.23;;;7.00;93.30;;;;;;5052049;28;20127;-73
2021/11/16 07:26:42;;;;;;;53.07;22.37;;;7.00;93.30;;;;;;5053078;28;20064;-73
2021/11/16 07:29:11;;;;;;;62.10;25.93;;;7.00;93.30;;;;;;5052766;28;20485;-73
2021/11/16 07:31:41;;;;;;;64.47;25.13;;;7.00;93.30;;;;;;5051342;28;20033;-73
2021/11/16 07:34:14;;;;;;;54.13;22.47;;;7.10;93.30;;;;;;5054782;28;20102;-72
2021/11/16 07:36:40;;;;;;;59.78;24.85;;;7.10;93.30;;;;;;5056706;28;20057;-73
2021/11/16 07:39:07;;;;;;;59.90;23.77;;;7.00;93.30;;;;;;5056998;28;20033;-73
2021/11/16 07:41:33;;;;;;;57.13;24.10;;;7.00;93.30;;;;;;5055643;28;20359;-73
2021/11/16 07:44:10;;;;;;;54.37;23.97;;;7.10;93.40;;;;;;5056979;28;20032;-73
2021/11/16 07:46:36;;;;;;;55.53;24.10;;;7.10;93.50;;;;;;5056768;28;20017;-73
2021/11/16 07:49:03;;;;;;;63.33;26.30;;;7.10;93.40;;;;;;5055582;28;20025;-73
2021/11/16 07:51:28;;;;;;;60.30;25.30;;;7.20;93.50;;;;;;5055610;28;20033;-75
2021/11/16 07:53:55;;;;;;;61.87;26.40;;;7.10;93.40;;;;;;5056571;28;20040;-75
2021/11/16 07:56:25;;;;;;;60.53;26.17;;;7.10;93.40;;;;;;5056507;28;20461;-76
2021/11/16 07:59:05;;;;;;;56.23;23.53;;;7.10;93.40;;;;;;5054368;28;20029;-74
2021/11/16 08:01:44;;;;;;;64.07;25.20;;;7.10;93.40;;;;;;5054564;28;20421;-74
2021/11/16 08:04:27;;;;;;;57.47;25.83;;;7.30;93.50;;;;;;5054765;28;20036;-75
2021/11/16 08:07:08;;;;;;;55.50;25.23;;;7.10;93.80;;;;;;5056138;28;20112;-74
2021/11/16 08:14:46;;;;;;;53.55;23.85;;;7.10;93.50;;;;;;5056586;28;20021;-74
2021/11/16 08:17:13;;;;;;;55.73;23.20;;;7.10;93.50;;;;;;5056411;28;20357;-74
2021/11/16 08:19:40;;;;;;;54.10;24.00;;;7.10;93.40;;;;;;5055274;28;20033;-74
2021/11/16 08:22:15;;;;;;;57.13;24.17;;;7.10;93.50;;;;;;5050087;28;20384;-74
2021/11/16 08:24:46;;;;;;;56.83;22.83;;;7.10;93.50;;;;;;5055707;28;20031;-74
2021/11/16 08:27:16;;;;;;;56.10;22.43;;;7.10;93.50;;;;;;5054066;28;20393;-74
2021/11/16 08:29:48;;;;;;;50.27;21.37;;;7.20;93.50;;;;;;5053673;28;20396;-74
2021/11/16 08:32:19;;;;;;;54.17;23.00;;;7.10;93.50;;;;;;5055605;28;20064;-74
2021/11/16 08:34:56;;;;;;;54.03;22.13;;;7.10;93.50;;;;;;5054207;28;20056;-73
2021/11/16 08:37:25;;;;;;;57.80;24.37;;;7.20;93.50;;;;;;5051961;28;20056;-73
2021/11/16 08:40:00;;;;;;;50.87;22.57;;;7.20;93.50;;;;;;5052917;28;20108;-74
2021/11/16 08:42:31;;;;;;;51.87;21.67;;;7.20;93.50;;;;;;5054559;28;20110;-74
2021/11/16 08:45:04;;;;;;;53.97;22.47;;;7.20;93.50;;;;;;5054043;28;20031;-74
2021/11/16 08:47:36;;;;;;;48.30;20.37;;;7.20;93.50;;;;;;5054048;28;20021;-74
2021/11/16 08:50:12;;;;;;;49.73;21.00;;;7.20;93.50;;;;;;5055724;28;20036;-74
2021/11/16 08:52:38;;;;;;;51.80;20.03;;;7.20;93.60;;;;;;5055501;28;20105;-74
2021/11/16 08:55:07;;;;;;;50.13;21.53;;;7.20;93.60;;;;;;5055561;28;20094;-74
2021/11/16 08:57:34;;;;;;;54.10;21.27;;;7.20;93.60;;;;;;5055196;28;20052;-74
2021/11/16 09:00:12;;;;;;;50.23;20.17;;;7.30;93.60;;;;;;5053568;28;20033;-74
2021/11/16 09:02:38;;;;;;;46.93;21.60;;;7.30;93.60;;;;;;5055203;28;20474;-72
2021/11/16 09:05:13;;;;;;;51.70;21.50;;;7.30;93.50;;;;;;5054243;28;20071;-74
2021/11/16 09:07:57;;;;;;;50.57;21.43;;;7.30;93.50;;;;;;5055000;28;20469;-73
2021/11/16 09:10:31;;;;;;;47.60;21.17;;;7.30;93.50;;;;;;5042987;28;20021;-73
2021/11/16 09:13:00;;;;;;;42.80;20.07;;;7.50;93.50;;;;;;5053836;28;20025;-74
2021/11/16 09:15:43;;;;;;;49.37;20.37;;;7.30;93.50;;;;;;5053737;28;20083;-74
2021/11/16 09:18:15;;;;;;;48.57;20.30;;;7.30;93.50;;;;;;5055108;28;20032;-74
2021/11/16 09:20:52;;;;;;;46.40;19.33;;;7.30;93.40;;;;;;5055157;28;20028;-74
2021/11/16 09:23:25;;;;;;;50.77;22.00;;;7.30;93.40;;;;;;5053548;28;20079;-74
2021/11/16 09:25:53;;;;;;;48.63;20.80;;;7.30;93.40;;;;;;5053840;28;20017;-74
2021/11/16 09:28:39;;;;;;;50.27;21.20;;;7.30;93.50;;;;;;5054863;28;20416;-74
2021/11/16 09:31:25;;;;;;;48.70;21.70;;;7.30;93.50;;;;;;5053747;28;20032;-73
2021/11/16 09:33:53;;;;;;;52.83;21.60;;;7.30;93.80;;;;;;5054740;28;20060;-74
2021/11/16 09:36:23;;;;;;;47.10;21.53;;;7.40;93.50;;;;;;5054446;28;20032;-74
2021/11/16 09:38:54;;;;;;;52.17;20.47;;;7.40;93.50;;;;;;5037351;28;20033;-74
2021/11/16 09:41:57;;;;;;;47.50;21.00;;;7.40;93.50;;;;;;5052602;28;20440;-73
2021/11/16 09:44:46;;;;;;;49.00;21.33;;;7.30;93.60;;;;;;5052641;28;20473;-73
2021/11/16 09:47:19;;;;;;;46.93;20.97;;;7.40;93.50;;;;;;5054613;28;20085;-74
2021/11/16 09:49:49;;;;;;;46.10;19.23;;;7.40;93.50;;;;;;5053074;28;20154;-74
2021/11/16 09:52:20;;;;;;;53.47;22.17;;;7.40;93.50;;;;;;5052992;28;20418;-74
2021/11/16 09:55:01;;;;;;;56.47;22.57;;;7.40;93.40;;;;;;5054130;28;20114;-74
2021/11/16 09:57:33;;;;;;;50.73;22.57;;;7.40;93.40;;;;;;5048109;28;20199;-74
2021/11/16 10:00:27;;;;;;;50.60;21.90;;;7.40;93.30;;;;;;5053690;28;20025;-73
2021/11/16 10:03:12;;;;;;;49.67;20.37;;;7.40;93.30;;;;;;5051291;28;20028;-74
2021/11/16 10:05:52;;;;;;;49.07;20.60;;;7.40;93.30;;;;;;5053098;28;20021;-74
2021/11/16 10:08:19;;;;;;;45.37;19.43;;;7.30;93.30;;;;;;5047084;28;20017;-74
2021/11/16 10:10:52;;;;;;;52.00;20.13;;;7.30;93.30;;;;;;5051404;28;20052;-73
2021/11/16 10:13:22;;;;;;;47.03;20.33;;;7.30;93.40;;;;;;5048387;28;20052;-72
2021/11/16 10:15:50;;;;;;;47.53;20.40;;;7.30;93.40;;;;;;5053685;28;20033;-73
2021/11/16 10:18:18;;;;;;;47.97;20.50;;;7.40;93.40;;;;;;5053591;28;20028;-73
2021/11/16 10:20:46;;;;;;;44.80;19.73;;;7.30;93.40;;;;;;5053012;28;20048;-72
2021/11/16 10:23:19;;;;;;;43.67;19.30;;;7.40;93.50;;;;;;5052488;28;20021;-72
2021/11/16 10:25:54;;;;;;;44.40;19.27;;;7.40;93.50;;;;;;5052490;28;20366;-73
2021/11/16 10:28:21;;;;;;;48.53;19.10;;;7.40;93.50;;;;;;5053874;28;20047;-73
2021/11/16 10:30:47;;;;;;;48.47;21.37;;;7.40;93.50;;;;;;5054103;28;20025;-73
2021/11/16 10:33:22;;;;;;;46.63;20.20;;;7.40;93.50;;;;;;5053918;28;20033;-73
2021/11/16 10:35:55;;;;;;;41.43;18.00;;;7.50;93.50;;;;;;5051852;28;20044;-75
2021/11/16 10:38:25;;;;;;;42.53;18.53;;;7.50;93.40;;;;;;5052378;28;20033;-74
2021/11/16 10:40:56;;;;;;;41.57;18.47;;;7.50;93.30;;;;;;5053325;28;20064;-74
2021/11/16 10:43:22;;;;;;;45.97;17.90;;;7.40;93.30;;;;;;5053486;28;20032;-74
2021/11/16 10:45:50;;;;;;;41.13;17.60;;;7.50;93.30;;;;;;5052099;28;20033;-74
2021/11/16 10:48:19;;;;;;;42.67;17.70;;;7.50;93.20;;;;;;5053282;28;20491;-75
2021/11/16 10:50:49;;;;;;;40.03;17.17;;;7.50;93.20;;;;;;5052019;28;20044;-75
2021/11/16 10:53:21;;;;;;;43.00;17.63;;;7.40;93.20;;;;;;5053273;28;20049;-74
2021/11/16 10:55:53;;;;;;;41.73;17.90;;;7.40;93.10;;;;;;5053248;28;20029;-74
2021/11/16 10:58:27;;;;;;;38.30;17.77;;;7.40;93.10;;;;;;5053373;28;20031;-74
2021/11/16 11:00:55;;;;;;;39.93;16.57;;;7.40;93.10;;;;;;5052021;28;20572;-73
2021/11/16 11:03:25;;;;;;;42.23;16.50;;;7.40;93.10;;;;;;5052075;28;20434;-73
2021/11/16 11:05:57;;;;;;;42.70;16.90;;;7.40;93.10;;;;;;5053181;28;20079;-74
2021/11/16 11:08:35;;;;;;;34.57;15.53;;;7.40;93.10;;;;;;5052599;28;20033;-74
2021/11/16 11:11:03;;;;;;;38.17;17.47;;;7.40;93.10;;;;;;5051867;28;20032;-74
2021/11/16 11:13:30;;;;;;;36.37;16.13;;;7.40;93.00;;;;;;5053353;28;20043;-74
2021/11/16 11:15:57;;;;;;;33.17;14.33;;;7.40;93.00;;;;;;5053086;28;20037;-74
2021/11/16 11:18:37;;;;;;;38.77;15.00;;;7.40;93.00;;;;;;5052918;28;20412;-74
2021/11/16 11:21:09;;;;;;;36.33;14.33;;;7.40;93.00;;;;;;5048019;28;20033;-74
2021/11/16 11:23:48;;;;;;;33.97;15.13;;;7.40;92.90;;;;;;5052356;28;20017;-74
2021/11/16 11:32:10;;;;;;;30.63;13.17;;;7.40;92.80;;;;;;5047889;28;20032;-74
2021/11/16 11:34:48;;;;;;;31.80;13.23;;;7.50;92.70;;;;;;5052428;28;20041;-74
2021/11/16 11:37:21;;;;;;;37.20;14.33;;;7.50;92.70;;;;;;5052526;28;20033;-73
2021/11/16 11:39:54;;;;;;;32.67;13.70;;;7.40;92.60;;;;;;5052426;28;20035;-73
2021/11/16 11:42:19;;;;;;;32.88;14.07;;;7.40;92.60;;;;;;5050927;28;20033;-74
2021/11/16 11:45:29;;;;;;;33.83;14.60;;;7.40;92.50;;;;;;5051875;28;20025;-73
2021/11/16 11:48:01;;;;;;;30.70;13.40;;;7.40;92.60;;;;;;5051256;28;20497;-73
2021/11/16 11:50:40;;;;;;;32.53;13.53;;;7.40;92.50;;;;;;5052244;28;20424;-73
2021/11/16 11:53:12;;;;;;;33.10;13.30;;;7.40;92.50;;;;;;5051203;28;20017;-74
2021/11/16 11:55:45;;;;;;;33.33;15.20;;;7.40;92.50;;;;;;5050859;28;20527;-73
2021/11/16 11:58:11;;;;;;;36.40;14.57;;;7.30;92.50;;;;;;5040088;28;20084;-73
2021/11/16 12:00:39;;;;;;;31.60;13.20;;;7.30;92.50;;;;;;5032550;28;20037;-73
2021/11/16 12:03:07;;;;;;;30.40;13.83;;;7.30;92.50;;;;;;5045404;28;20489;-73
2021/11/16 12:05:35;;;;;;;32.23;14.37;;;7.30;92.50;;;;;;5052648;28;20061;-73
2021/11/16 12:08:02;;;;;;;29.50;14.10;;;7.30;92.60;;;;;;5052693;28;20025;-73
2021/11/16 12:10:28;;;;;;;30.03;13.83;;;7.30;92.60;;;;;;5051740;28;20120;-73
2021/11/16 12:12:55;;;;;;;29.13;13.57;;;7.30;92.70;;;;;;5052497;28;20064;-73
2021/11/16 12:15:42;;;;;;;31.77;13.80;;;7.30;92.70;;;;;;5052719;28;20063;-74
2021/11/16 12:18:08;;;;;;;31.53;13.50;;;7.30;92.70;;;;;;5052038;28;20029;-73
2021/11/16 12:20:55;;;;;;;34.80;14.97;;;7.20;92.70;;;;;;5054904;28;20508;-73
2021/11/16 12:23:42;;;;;;;29.53;13.07;;;7.30;92.80;;;;;;5054602;28;20537;-73
2021/11/16 12:26:13;;;;;;;31.93;14.47;;;7.30;92.80;;;;;;5056034;28;20028;-73
2021/11/16 12:28:39;;;;;;;37.27;15.57;;;7.40;92.80;;;;;;5051007;28;20474;-73
2021/11/16 12:31:05;;;;;;;32.90;14.57;;;7.40;92.90;;;;;;5055811;28;20036;-73
2021/11/16 12:33:46;;;;;;;31.70;14.47;;;7.40;92.90;;;;;;5055145;28;20035;-72
2021/11/16 12:36:16;;;;;;;34.00;15.53;;;7.40;92.90;;;;;;5054444;28;20116;-73
2021/11/16 12:38:48;;;;;;;34.17;15.30;;;7.40;92.90;;;;;;5055663;28;20029;-73
2021/11/16 12:41:36;;;;;;;36.93;15.20;;;7.40;92.90;;;;;;5055392;28;20043;-73
2021/11/16 12:44:06;;;;;;;33.33;15.10;;;7.40;93.00;;;;;;5054136;28;20020;-73
2021/11/16 12:46:36;;;;;;;38.57;16.10;;;7.40;93.00;;;;;;5055002;28;20473;-73
2021/11/16 12:49:04;;;;;;;34.60;14.87;;;7.40;93.10;;;;;;5053699;28;20431;-73
2021/11/16 12:51:34;;;;;;;39.90;16.90;;;7.40;93.10;;;;;;5054217;28;20040;-73
2021/11/16 12:54:09;;;;;;;37.87;16.70;;;7.40;93.20;;;;;;5054662;28;20393;-73
2021/11/16 12:56:45;;;;;;;38.67;15.20;;;7.40;93.20;;;;;;5053857;28;20025;-74
2021/11/16 12:59:13;;;;;;;36.00;15.30;;;7.40;93.10;;;;;;5053828;28;20104;-74
2021/11/16 13:01:43;;;;;;;38.63;16.43;;;7.40;93.20;;;;;;5053478;28;20029;-74
2021/11/16 13:04:11;;;;;;;40.93;16.30;;;7.50;93.20;;;;;;5054999;28;20100;-74
2021/11/16 13:06:41;;;;;;;37.70;16.73;;;7.50;93.20;;;;;;5052985;28;20434;-74